Falls Mill, West Virginia
Current Conditions -  °F | °C
As of 10:51 PM on Tuesday 21 Oct 2014 (Local Time) from KBKW Reporting Station
Light Rain Light Rain  
Wind Chill: 37°   Ceiling: 500
Heat Index: 43°   Visibility: 6mi
Dew Point: 40°   Wind: 12mph
Humidity: 89%   Direction: 350°N
Pressure: 30.05"   Gusts: NA
Location:  38.2586°N, 80.9505°W
Report Text: KBKW 220251Z AUTO 35010KT 6SM -RA BR BKN005 OVC009 06/04 A3005 RMK AO2 CIG 003V008 SLP178 P0004 60006 T00610044 53010 TSNO
Loading
Personal Weather Stations






























Interactive Weather Map
Tropical Storm Tracking
New forecast layout! Learn more

10-Day Weather Forecast

Advertisements
Track Severe Weather on mobile